createdAt,value
2018-05-16T00:04:38.083Z,100905.88
2018-05-16T00:09:40.661Z,100897.91
2018-05-16T00:14:43.229Z,100910.48
2018-05-16T00:19:45.793Z,100907.70
2018-05-16T00:24:48.279Z,100916.86
2018-05-16T00:29:50.787Z,100915.14
2018-05-16T00:34:53.300Z,100914.30
2018-05-16T00:39:57.034Z,100919.39
2018-05-16T00:44:59.574Z,100915.95
2018-05-16T00:50:02.053Z,100911.31
2018-05-16T00:55:04.639Z,100909.69
2018-05-16T01:00:07.261Z,100899.00
2018-05-16T01:05:09.887Z,100910.75
2018-05-16T01:10:12.405Z,100910.52
2018-05-16T01:15:15.000Z,100912.97
2018-05-16T01:20:17.530Z,100913.56
2018-05-16T01:25:20.122Z,100914.45
2018-05-16T01:30:22.607Z,100907.88
2018-05-16T01:35:25.118Z,100905.77
2018-05-16T01:40:27.631Z,100899.67
2018-05-16T01:45:30.148Z,100905.22
2018-05-16T01:50:32.637Z,100906.47
2018-05-16T01:55:35.141Z,100901.91
2018-05-16T02:00:37.692Z,100903.70
2018-05-16T02:05:40.469Z,100900.52
2018-05-16T02:10:42.991Z,100901.23
2018-05-16T02:15:45.543Z,100903.16
2018-05-16T02:20:48.068Z,100902.95
2018-05-16T02:25:50.583Z,100904.17
2018-05-16T02:30:53.165Z,100897.38
2018-05-16T02:35:55.650Z,100903.08
2018-05-16T02:40:58.207Z,100900.48
2018-05-16T02:46:00.718Z,100903.48
2018-05-16T02:51:03.225Z,100897.63
2018-05-16T02:56:05.739Z,100898.37
2018-05-16T03:01:08.264Z,100892.22
2018-05-16T03:06:10.899Z,100894.31
2018-05-16T03:11:14.747Z,100896.62
2018-05-16T03:16:17.492Z,100909.61
2018-05-16T03:21:19.984Z,100902.17
2018-05-16T03:26:22.503Z,100903.52
2018-05-16T03:31:25.018Z,100907.77
2018-05-16T03:36:27.598Z,100901.59
2018-05-16T03:41:30.104Z,100901.16
2018-05-16T03:46:32.640Z,100895.73
2018-05-16T03:51:35.164Z,100900.98
2018-05-16T03:56:37.914Z,100901.83
2018-05-16T04:01:52.424Z,100898.95
2018-05-16T04:06:54.950Z,100902.17
2018-05-16T04:11:57.442Z,100908.10
2018-05-16T04:16:59.992Z,100916.08
2018-05-16T04:22:03.431Z,100908.19
2018-05-16T04:27:07.578Z,100910.63
2018-05-16T04:32:12.022Z,100914.48
2018-05-16T04:37:14.510Z,100908.16
2018-05-16T04:42:17.007Z,100904.01
2018-05-16T04:47:19.679Z,100903.83
2018-05-16T04:52:22.241Z,100903.52
2018-05-16T04:57:24.723Z,100913.14
2018-05-16T05:02:27.301Z,100910.75
2018-05-16T05:07:29.844Z,100919.78
2018-05-16T05:12:32.405Z,100928.59
2018-05-16T05:17:35.139Z,100924.69
2018-05-16T05:22:37.769Z,100920.72
2018-05-16T05:27:40.397Z,100922.80
2018-05-16T05:32:43.025Z,100929.67
2018-05-16T05:37:45.554Z,100929.95
2018-05-16T05:42:48.045Z,100924.85
2018-05-16T05:47:50.879Z,100921.59
2018-05-16T05:52:53.625Z,100920.09
2018-05-16T05:57:57.820Z,100915.49
2018-05-16T06:03:00.326Z,100920.66
2018-05-16T06:08:02.860Z,100926.89
2018-05-16T06:13:05.346Z,100930.17
2018-05-16T06:18:09.108Z,100929.59
2018-05-16T06:23:11.785Z,100936.83
2018-05-16T06:28:14.342Z,100936.48
2018-05-16T06:33:16.872Z,100929.88
2018-05-16T06:38:19.361Z,100936.67
2018-05-16T06:43:21.915Z,100935.55
2018-05-16T06:48:24.691Z,100924.65
2018-05-16T06:53:27.207Z,100921.55
2018-05-16T06:58:29.843Z,100923.88
2018-05-16T07:03:32.348Z,100929.81
2018-05-16T07:08:34.873Z,100929.91
2018-05-16T07:13:37.730Z,100932.14
2018-05-16T07:18:40.406Z,100933.79
2018-05-16T07:23:44.069Z,100935.53
2018-05-16T07:28:46.601Z,100935.34
2018-05-16T07:33:49.468Z,100933.39
2018-05-16T07:38:52.192Z,100933.54
2018-05-16T07:43:56.650Z,100924.39
2018-05-16T07:48:59.259Z,100922.67
2018-05-16T07:54:01.785Z,100926.47
2018-05-16T07:59:04.282Z,100933.75
2018-05-16T08:04:06.866Z,100930.44
2018-05-16T08:09:09.447Z,100935.11
2018-05-16T08:14:12.037Z,100935.02
2018-05-16T08:19:14.588Z,100934.30
2018-05-16T08:24:17.108Z,100923.12
2018-05-16T08:29:19.630Z,100933.45
2018-05-16T08:34:22.282Z,100932.87
2018-05-16T08:39:24.782Z,100929.15
2018-05-16T08:44:27.297Z,100940.11
2018-05-16T08:49:29.787Z,100932.75
2018-05-16T08:54:32.302Z,100931.86
2018-05-16T08:59:34.811Z,100939.91
2018-05-16T09:04:37.400Z,100936.39
2018-05-16T09:09:40.013Z,100931.97
2018-05-16T09:14:42.597Z,100946.07
2018-05-16T09:19:45.105Z,100942.28
2018-05-16T09:24:47.630Z,100941.73
2018-05-16T09:29:50.146Z,100939.06
2018-05-16T09:34:52.665Z,100939.02
2018-05-16T09:39:55.129Z,100937.23
2018-05-16T09:44:57.645Z,100937.80
2018-05-16T09:50:00.147Z,100941.80
2018-05-16T09:55:02.648Z,100933.35
2018-05-16T10:00:05.168Z,100925.28
2018-05-16T10:05:08.923Z,100921.33
2018-05-16T10:10:11.518Z,100922.40
2018-05-16T10:15:14.034Z,100932.83
2018-05-16T10:20:16.712Z,100932.03
2018-05-16T10:25:19.384Z,100935.41
2018-05-16T10:30:22.207Z,100925.19
2018-05-16T10:35:24.733Z,100919.70
2018-05-16T10:40:27.217Z,100911.17
2018-05-16T10:45:29.735Z,100905.37
2018-05-16T10:50:33.237Z,100914.09
2018-05-16T10:55:35.920Z,100914.91
2018-05-16T11:00:38.449Z,100913.22
2018-05-16T11:05:41.158Z,100900.03
2018-05-16T11:10:43.752Z,100905.34
2018-05-16T11:15:46.311Z,100896.64
2018-05-16T11:20:48.802Z,100892.22
2018-05-16T11:25:51.299Z,100885.84
2018-05-16T11:30:54.589Z,100878.23
2018-05-16T11:35:57.106Z,100881.73
2018-05-16T11:40:59.585Z,100866.80
2018-05-16T11:46:02.100Z,100863.05
2018-05-16T11:51:04.642Z,100876.50
2018-05-16T11:56:07.116Z,100860.69
2018-05-16T12:01:09.621Z,100860.98
2018-05-16T12:06:12.163Z,100853.05
2018-05-16T12:11:14.664Z,100866.73
2018-05-16T12:16:17.182Z,100864.33
2018-05-16T12:21:19.729Z,100850.31
2018-05-16T12:26:22.191Z,100848.40
2018-05-16T12:31:24.936Z,100848.61
2018-05-16T12:36:27.456Z,100846.31
2018-05-16T12:41:41.978Z,100847.56
2018-05-16T12:46:45.395Z,100834.47
2018-05-16T12:51:48.505Z,100836.35
2018-05-16T12:56:52.641Z,100829.09
2018-05-16T13:01:55.273Z,100826.66
2018-05-16T13:06:58.061Z,100817.63
2018-05-16T13:12:05.621Z,100812.91
2018-05-16T13:17:08.691Z,100810.91
2018-05-16T13:22:11.182Z,100806.83
2018-05-16T13:27:13.708Z,100797.95
2018-05-16T13:32:16.230Z,100801.53
2018-05-16T13:37:19.049Z,100807.21
2018-05-16T13:42:21.696Z,100814.94
2018-05-16T13:47:24.219Z,100795.12
2018-05-16T13:52:26.729Z,100806.66
2018-05-16T13:57:29.717Z,100800.94
2018-05-16T14:02:32.242Z,100796.20
2018-05-16T14:07:34.760Z,100793.30
2018-05-16T14:12:37.280Z,100794.83
2018-05-16T14:17:39.802Z,100792.49
2018-05-16T14:22:42.419Z,100797.57
2018-05-16T14:27:47.415Z,100798.75
2018-05-16T14:32:50.072Z,100792.56
2018-05-16T14:37:52.618Z,100788.84
2018-05-16T14:42:55.248Z,100785.00
2018-05-16T14:47:57.762Z,100783.97
2018-05-16T14:53:00.285Z,100781.77
2018-05-16T14:58:02.754Z,100775.86
2018-05-16T15:03:05.316Z,100780.93
2018-05-16T15:08:07.833Z,100779.73
2018-05-16T15:13:10.350Z,100778.15
2018-05-16T15:18:12.841Z,100782.67
2018-05-16T15:23:15.348Z,100780.95
2018-05-16T15:28:17.869Z,100796.52
2018-05-16T15:33:20.396Z,100796.39
2018-05-16T15:38:23.095Z,100792.34
2018-05-16T15:43:25.675Z,100788.12
2018-05-16T15:48:28.191Z,100792.95
2018-05-16T15:53:30.677Z,100791.16
2018-05-16T15:58:33.939Z,100796.44
2018-05-16T16:03:36.692Z,100808.37
2018-05-16T16:08:39.175Z,100811.43
2018-05-16T16:13:41.668Z,100810.30
2018-05-16T16:18:44.182Z,100806.20
2018-05-16T16:23:46.700Z,100805.44
2018-05-16T16:28:49.255Z,100796.50
2018-05-16T16:33:51.980Z,100796.83
2018-05-16T16:38:54.593Z,100798.91
2018-05-16T16:43:57.044Z,100793.69
2018-05-16T16:48:59.540Z,100793.19
2018-05-16T16:54:02.032Z,100779.20
2018-05-16T16:59:04.531Z,100777.88
2018-05-16T17:04:07.101Z,100772.83
2018-05-16T17:09:09.589Z,100775.38
2018-05-16T17:14:12.107Z,100768.66
2018-05-16T17:19:14.640Z,100773.50
2018-05-16T17:24:17.153Z,100774.76
2018-05-16T17:29:19.654Z,100775.02
2018-05-16T17:34:22.388Z,100779.95
2018-05-16T17:39:25.238Z,100772.30
2018-05-16T17:44:27.966Z,100771.55
2018-05-16T17:49:30.567Z,100769.09
2018-05-16T17:54:33.093Z,100776.24
2018-05-16T17:59:35.574Z,100774.47
2018-05-16T18:04:38.131Z,100779.48
2018-05-16T18:09:40.597Z,100786.67
2018-05-16T18:20:16.413Z,100788.97
2018-05-16T18:25:21.714Z,100796.81
2018-05-16T18:30:24.243Z,100796.59
2018-05-16T18:35:27.227Z,100798.58
2018-05-16T18:40:29.733Z,100791.66
2018-05-16T18:45:32.271Z,100801.37
2018-05-16T18:50:34.774Z,100806.72
2018-05-16T18:55:37.324Z,100815.97
2018-05-16T19:00:39.832Z,100811.88
2018-05-16T19:05:42.344Z,100822.48
2018-05-16T19:10:45.611Z,100824.66
2018-05-16T19:15:48.232Z,100832.52
2018-05-16T19:20:50.757Z,100828.20
2018-05-16T19:25:53.282Z,100837.32
2018-05-16T19:30:56.045Z,100837.22
2018-05-16T19:36:00.803Z,100838.99
2018-05-16T19:41:03.363Z,100838.09
2018-05-16T19:46:05.872Z,100844.98
2018-05-16T19:51:08.378Z,100848.18
2018-05-16T19:56:10.893Z,100848.08
2018-05-16T20:01:13.655Z,100854.44
2018-05-16T20:06:16.361Z,100854.84
2018-05-16T20:11:21.408Z,100853.86
2018-05-16T20:16:24.124Z,100851.15
2018-05-16T20:21:26.678Z,100852.36
2018-05-16T20:26:29.198Z,100849.78
2018-05-16T20:31:31.695Z,100848.52
2018-05-16T20:36:34.198Z,100852.95
2018-05-16T20:41:36.695Z,100857.55
2018-05-16T20:46:39.208Z,100857.48
2018-05-16T20:51:41.816Z,100869.79
2018-05-16T20:56:44.328Z,100865.81
2018-05-16T21:01:46.892Z,100861.30
2018-05-16T21:06:49.466Z,100865.55
2018-05-16T21:11:52.139Z,100869.07
2018-05-16T21:16:54.629Z,100866.44
2018-05-16T21:21:57.249Z,100863.61
2018-05-16T21:26:59.734Z,100858.36
2018-05-16T21:32:02.268Z,100856.23
2018-05-16T21:37:04.759Z,100857.85
2018-05-16T21:42:07.263Z,100864.27
2018-05-16T21:47:09.822Z,100872.05
2018-05-16T21:52:12.391Z,100868.87
2018-05-16T21:57:14.975Z,100865.04
2018-05-16T22:02:17.719Z,100862.58
2018-05-16T22:07:20.373Z,100859.41
2018-05-16T22:12:22.997Z,100855.78
2018-05-16T22:17:25.537Z,100856.44
2018-05-16T22:22:28.025Z,100858.39
2018-05-16T22:27:30.555Z,100848.88
2018-05-16T22:32:34.039Z,100847.34
2018-05-16T22:37:36.547Z,100851.39
2018-05-16T22:42:39.056Z,100851.48
2018-05-16T22:47:41.647Z,100852.59
2018-05-16T22:52:44.231Z,100847.30
2018-05-16T22:57:46.921Z,100843.36
2018-05-16T23:02:49.466Z,100839.30
2018-05-16T23:07:52.106Z,100828.69
2018-05-16T23:12:54.695Z,100830.97
2018-05-16T23:17:57.268Z,100825.05
2018-05-16T23:22:59.887Z,100829.26
2018-05-16T23:28:02.374Z,100833.81
2018-05-16T23:33:04.926Z,100826.45
2018-05-16T23:38:07.423Z,100821.58
2018-05-16T23:43:09.949Z,100825.98
2018-05-16T23:48:12.429Z,100824.27
2018-05-16T23:53:14.989Z,100822.98
2018-05-16T23:58:17.546Z,100817.11
